Time;durP1;ratioP1;P1;durP2;ratioP2;P2;SDS_P1;SDS_P2;PMS_P1;PMS_P2;Temp;Humidity;BMP_temperature;BMP_pressure;BME280_temperature;BME280_humidity;BME280_pressure;Samples;Min_cycle;Max_cycle;Signal;HPM_P1;HPM_P2
2023/09/30 00:01:52;;;;;;;0.00;0.00;;;;;;;13.45;100.00;102422.19;5102940;28;20031;-45
2023/09/30 00:04:17;;;;;;;0.00;0.00;;;;;;;13.46;100.00;102424.72;5103529;28;20035;-44
2023/09/30 00:06:42;;;;;;;0.00;0.00;;;;;;;13.44;100.00;102424.03;5105721;28;20016;-45
2023/09/30 00:09:08;;;;;;;0.00;0.00;;;;;;;13.45;100.00;102424.88;5105718;27;20771;-46
2023/09/30 00:11:33;;;;;;;0.00;0.00;;;;;;;13.47;100.00;102428.28;5106289;27;20055;-49
2023/09/30 00:13:58;;;;;;;0.00;0.00;;;;;;;13.45;100.00;102430.28;5105790;28;20026;-46
2023/09/30 00:16:24;;;;;;;0.00;0.00;;;;;;;13.44;100.00;102436.72;5106541;28;20023;-45
2023/09/30 00:18:49;;;;;;;0.00;0.00;;;;;;;13.40;100.00;102428.06;5105325;28;20539;-49
2023/09/30 00:21:15;;;;;;;0.00;0.00;;;;;;;13.42;100.00;102425.22;5104770;28;20024;-46
2023/09/30 00:23:40;;;;;;;0.00;0.00;;;;;;;13.45;100.00;102424.88;5106767;28;20073;-47
2023/09/30 00:26:05;;;;;;;0.00;0.00;;;;;;;13.48;100.00;102430.84;5105725;28;20166;-44
2023/09/30 00:28:31;;;;;;;0.00;0.00;;;;;;;13.47;100.00;102434.53;5105773;28;20502;-47
2023/09/30 00:30:56;;;;;;;0.00;0.00;;;;;;;13.42;100.00;102422.50;5103252;28;20100;-43
2023/09/30 00:33:22;;;;;;;0.00;0.00;;;;;;;13.38;100.00;102422.84;5105554;28;20363;-44
2023/09/30 00:35:48;;;;;;;0.00;0.00;;;;;;;13.36;100.00;102437.53;5106139;28;20106;-44
2023/09/30 00:38:14;;;;;;;0.00;0.00;;;;;;;13.35;100.00;102449.38;5105765;28;20106;-45
2023/09/30 00:40:39;;;;;;;0.00;0.00;;;;;;;13.32;100.00;102453.25;5106460;27;20432;-49
2023/09/30 00:43:04;;;;;;;0.00;0.00;;;;;;;13.27;100.00;102466.38;5105023;27;20032;-46
2023/09/30 00:45:30;;;;;;;0.00;0.00;;;;;;;13.27;100.00;102463.69;5105626;28;20417;-46
2023/09/30 00:47:56;;;;;;;0.00;0.00;;;;;;;13.25;100.00;102452.16;5104563;28;20035;-48
2023/09/30 00:50:21;;;;;;;0.00;0.00;;;;;;;13.23;100.00;102454.16;5104831;28;20477;-43
2023/09/30 00:52:48;;;;;;;0.00;0.00;;;;;;;13.18;100.00;102457.31;5105949;28;20024;-48
2023/09/30 00:55:15;;;;;;;0.00;0.00;;;;;;;13.17;100.00;102463.75;5105813;28;20052;-48
2023/09/30 00:57:40;;;;;;;0.00;0.00;;;;;;;13.14;100.00;102471.34;5106752;28;20122;-43
2023/09/30 01:00:07;;;;;;;0.00;0.00;;;;;;;13.11;100.00;102483.31;5105434;28;20602;-47
2023/09/30 01:02:34;;;;;;;0.00;0.00;;;;;;;13.10;100.00;102486.16;5106383;28;21058;-45
2023/09/30 01:05:01;;;;;;;0.00;0.00;;;;;;;13.11;100.00;102490.56;5106431;28;20184;-46
2023/09/30 01:07:26;;;;;;;0.00;0.00;;;;;;;13.14;100.00;102480.31;5105823;28;20020;-47
2023/09/30 01:09:51;;;;;;;0.00;0.00;;;;;;;13.13;100.00;102478.59;5103348;28;20058;-47
2023/09/30 01:12:17;;;;;;;0.00;0.00;;;;;;;13.08;100.00;102482.78;5103147;28;20035;-49
2023/09/30 01:14:42;;;;;;;0.00;0.00;;;;;;;13.06;100.00;102473.97;5103690;28;20418;-44
2023/09/30 01:17:14;;;;;;;0.00;0.00;;;;;;;13.04;100.00;102481.41;5099315;28;20036;-47
2023/09/30 01:19:41;;;;;;;0.00;0.00;;;;;;;13.00;100.00;102467.34;5101561;28;20032;-45
2023/09/30 01:22:09;;;;;;;0.00;0.00;;;;;;;12.95;100.00;102465.13;5101451;28;20043;-45
2023/09/30 01:24:40;;;;;;;0.00;0.00;;;;;;;12.98;100.00;102465.81;5102899;28;20028;-47
2023/09/30 01:27:05;;;;;;;0.00;0.00;;;;;;;12.99;100.00;102465.66;5102006;28;20040;-45
2023/09/30 01:29:31;;;;;;;0.00;0.00;;;;;;;12.96;100.00;102468.69;5101861;28;20042;-47
2023/09/30 01:31:56;;;;;;;0.00;0.00;;;;;;;12.94;100.00;102476.94;5103053;28;20030;-47
2023/09/30 01:34:21;;;;;;;0.00;0.00;;;;;;;12.91;100.00;102477.25;5102828;28;20084;-43
2023/09/30 01:36:47;;;;;;;0.00;0.00;;;;;;;12.89;100.00;102473.84;5103687;28;20024;-45
2023/09/30 01:39:13;;;;;;;0.00;0.00;;;;;;;12.90;100.00;102470.16;5101758;28;20070;-45
2023/09/30 01:41:39;;;;;;;0.00;0.00;;;;;;;12.87;100.00;102475.84;5103868;28;20545;-47
2023/09/30 01:44:05;;;;;;;0.00;0.00;;;;;;;12.90;100.00;102480.97;5104031;28;20040;-46
2023/09/30 01:46:30;;;;;;;0.00;0.00;;;;;;;12.89;100.00;102483.81;5102944;28;20050;-47
2023/09/30 01:48:55;;;;;;;0.00;0.00;;;;;;;12.86;100.00;102487.69;5100745;28;20366;-46
2023/09/30 01:51:21;;;;;;;0.00;0.00;;;;;;;12.88;100.00;102485.69;5102075;28;20148;-43
2023/09/30 01:53:47;;;;;;;0.00;0.00;;;;;;;12.88;100.00;102488.38;5103200;28;20435;-46
2023/09/30 01:56:12;;;;;;;0.00;0.00;;;;;;;12.88;100.00;102488.38;5102952;28;20036;-45
2023/09/30 01:58:38;;;;;;;0.00;0.00;;;;;;;12.88;100.00;102496.50;5101483;28;20054;-47
2023/09/30 02:01:03;;;;;;;0.00;0.00;;;;;;;12.87;100.00;102494.78;5100339;28;20051;-45
2023/09/30 02:03:29;;;;;;;0.00;0.00;;;;;;;12.89;100.00;102494.63;5099628;28;20024;-45
2023/09/30 02:05:55;;;;;;;0.00;0.00;;;;;;;12.86;100.00;102490.38;5101197;28;20051;-46
2023/09/30 02:08:22;;;;;;;0.00;0.00;;;;;;;12.85;100.00;102488.69;5103837;28;20034;-46
2023/09/30 02:10:47;;;;;;;0.00;0.00;;;;;;;12.94;100.00;102478.78;5102451;28;20047;-46
2023/09/30 02:13:13;;;;;;;0.00;0.00;;;;;;;12.96;100.00;102474.94;5106729;28;20069;-45
2023/09/30 02:15:41;;;;;;;0.00;0.00;;;;;;;12.97;100.00;102481.19;5108307;27;20055;-44
2023/09/30 02:18:07;;;;;;;0.00;0.00;;;;;;;12.93;100.00;102475.25;5106671;28;20116;-42
2023/09/30 02:20:32;;;;;;;0.00;0.00;;;;;;;12.92;100.00;102484.34;5109741;28;20055;-43
2023/09/30 02:22:58;;;;;;;0.00;0.00;;;;;;;12.94;100.00;102487.75;5106149;28;20387;-43
2023/09/30 02:25:24;;;;;;;0.00;0.00;;;;;;;12.89;100.00;102484.66;5109232;27;20088;-44
2023/09/30 02:27:50;;;;;;;0.00;0.00;;;;;;;12.91;100.00;102477.25;5107424;28;20027;-45
2023/09/30 02:30:16;;;;;;;0.00;0.00;;;;;;;12.94;100.00;102465.28;5108161;27;20032;-46
2023/09/30 02:32:41;;;;;;;0.00;0.00;;;;;;;12.97;100.00;102475.78;5106620;28;20062;-46
2023/09/30 02:35:08;;;;;;;0.00;0.00;;;;;;;12.96;100.00;102474.94;5107780;28;20210;-46
2023/09/30 02:37:37;;;;;;;0.00;0.00;;;;;;;13.01;100.00;102471.75;5106198;27;20465;-43
2023/09/30 02:40:09;;;;;;;0.00;0.00;;;;;;;12.98;100.00;102482.91;5103048;28;20036;-46
2023/09/30 02:42:35;;;;;;;0.00;0.00;;;;;;;12.99;100.00;102478.34;5106237;28;20367;-47
2023/09/30 02:45:01;;;;;;;0.00;0.00;;;;;;;13.04;100.00;102482.25;5105260;28;20393;-45
2023/09/30 02:47:26;;;;;;;0.00;0.00;;;;;;;13.05;100.00;102488.50;5106361;28;20024;-46
2023/09/30 02:49:52;;;;;;;0.00;0.00;;;;;;;13.10;100.00;102480.75;5107526;28;20035;-46
2023/09/30 02:52:17;;;;;;;0.00;0.00;;;;;;;13.07;100.00;102481.09;5107970;28;20442;-46
2023/09/30 02:54:42;;;;;;;0.00;0.00;;;;;;;13.06;100.00;102480.25;5105637;28;20081;-46
2023/09/30 02:57:09;;;;;;;0.00;0.00;;;;;;;13.06;100.00;102477.53;5107592;28;20031;-46
2023/09/30 02:59:36;;;;;;;0.00;0.00;;;;;;;13.05;100.00;102472.28;5107638;28;20414;-44
2023/09/30 03:02:01;;;;;;;0.00;0.00;;;;;;;13.09;100.00;102462.88;5107942;27;20082;-48
2023/09/30 03:04:28;;;;;;;0.00;0.00;;;;;;;13.06;100.00;102461.31;5107313;27;20059;-49
2023/09/30 03:06:56;;;;;;;0.00;0.00;;;;;;;13.04;100.00;102470.59;5106887;28;20023;-46
2023/09/30 03:09:22;;;;;;;0.00;0.00;;;;;;;13.03;100.00;102468.88;5109893;27;20110;-45
2023/09/30 03:11:48;;;;;;;0.00;0.00;;;;;;;13.04;100.00;102476.00;5107995;27;20031;-44
2023/09/30 03:14:13;;;;;;;0.00;0.00;;;;;;;13.05;100.00;102472.28;5107754;28;20738;-44
2023/09/30 03:16:41;;;;;;;0.00;0.00;;;;;;;13.07;100.00;102473.81;5107874;28;20047;-44
2023/09/30 03:19:08;;;;;;;0.00;0.00;;;;;;;13.05;100.00;102473.13;5106988;28;20031;-44
2023/09/30 03:21:35;;;;;;;0.00;0.00;;;;;;;13.08;100.00;102471.97;5107281;28;20040;-44
2023/09/30 03:24:04;;;;;;;0.00;0.00;;;;;;;13.11;100.00;102480.63;5104443;28;20023;-48
2023/09/30 03:26:29;;;;;;;0.00;0.00;;;;;;;13.12;100.00;102482.31;5107291;27;20016;-44
2023/09/30 03:28:55;;;;;;;0.00;0.00;;;;;;;13.14;100.00;102482.16;5106442;28;20077;-43
2023/09/30 03:31:20;;;;;;;0.00;0.00;;;;;;;13.21;100.00;102476.94;5105695;27;20134;-46
2023/09/30 03:33:47;;;;;;;0.00;0.00;;;;;;;13.25;100.00;102484.59;5106821;28;20081;-47
2023/09/30 03:36:13;;;;;;;0.00;0.00;;;;;;;13.30;100.00;102486.84;5106992;28;20067;-46
2023/09/30 03:38:39;;;;;;;0.00;0.00;;;;;;;13.25;100.00;102489.16;5106729;28;20070;-44
2023/09/30 03:41:08;;;;;;;0.00;0.00;;;;;;;13.23;100.00;102478.47;5102486;28;20121;-42
2023/09/30 03:43:35;;;;;;;0.00;0.00;;;;;;;13.21;100.00;102477.78;5105476;28;20042;-43
2023/09/30 03:46:00;;;;;;;0.00;0.00;;;;;;;13.23;100.00;102480.34;5104721;28;20035;-45
2023/09/30 03:48:26;;;;;;;0.00;0.00;;;;;;;13.23;100.00;102474.94;5102636;28;20059;-45
2023/09/30 03:50:52;;;;;;;0.00;0.00;;;;;;;13.28;100.00;102481.59;5102607;28;20485;-48
2023/09/30 03:53:18;;;;;;;0.00;0.00;;;;;;;13.32;100.00;102485.69;5104243;28;20078;-46
2023/09/30 03:55:43;;;;;;;0.00;0.00;;;;;;;13.34;100.00;102483.66;5104569;28;20169;-45
2023/09/30 03:58:08;;;;;;;0.00;0.00;;;;;;;13.39;100.00;102491.28;5102216;28;20027;-47
2023/09/30 04:00:35;;;;;;;0.00;0.00;;;;;;;13.38;100.00;102495.00;5101062;28;20145;-45
2023/09/30 04:03:00;;;;;;;0.00;0.00;;;;;;;13.34;100.00;102489.06;5102517;28;20122;-47
2023/09/30 04:05:29;;;;;;;0.00;0.00;;;;;;;13.29;100.00;102483.28;5097870;28;20024;-47
2023/09/30 04:07:58;;;;;;;0.00;0.00;;;;;;;13.32;100.00;102484.81;5102270;28;20961;-43
2023/09/30 04:10:23;;;;;;;0.00;0.00;;;;;;;13.31;100.00;102483.13;5101276;28;20085;-47
2023/09/30 04:12:49;;;;;;;0.00;0.00;;;;;;;13.31;100.00;102477.72;5101915;28;20081;-44
2023/09/30 04:15:15;;;;;;;0.00;0.00;;;;;;;13.38;100.00;102484.19;5102565;28;20033;-44
2023/09/30 04:17:41;;;;;;;0.00;0.00;;;;;;;13.44;100.00;102491.66;5103423;28;20050;-46
2023/09/30 04:20:15;;;;;;;0.00;0.00;;;;;;;13.44;100.00;102497.06;5103231;28;20486;-44
2023/09/30 04:22:41;;;;;;;0.00;0.00;;;;;;;13.46;100.00;102496.91;5103683;28;20028;-45
2023/09/30 04:25:10;;;;;;;0.00;0.00;;;;;;;13.43;100.00;102506.19;5096471;28;20085;-45
2023/09/30 04:27:36;;;;;;;0.00;0.00;;;;;;;13.41;100.00;102510.91;5104445;28;20040;-45
2023/09/30 04:30:08;;;;;;;0.00;0.00;;;;;;;13.39;100.00;102507.50;5103771;28;20115;-44
2023/09/30 04:32:34;;;;;;;0.00;0.00;;;;;;;13.38;100.00;102506.66;5102831;28;20540;-46
2023/09/30 04:35:00;;;;;;;0.00;0.00;;;;;;;13.43;100.00;102508.03;5103348;28;20062;-43
2023/09/30 04:37:25;;;;;;;0.00;0.00;;;;;;;13.43;100.00;102510.75;5099524;28;20051;-46
2023/09/30 04:39:50;;;;;;;0.00;0.00;;;;;;;13.45;100.00;102514.13;5102427;28;20474;-45
2023/09/30 04:42:17;;;;;;;0.00;0.00;;;;;;;13.44;100.00;102523.28;5103550;28;20511;-48
2023/09/30 04:44:43;;;;;;;0.00;0.00;;;;;;;13.42;100.00;102519.88;5104602;28;20072;-45
2023/09/30 04:47:08;;;;;;;0.00;0.00;;;;;;;13.37;100.00;102510.38;5102235;28;20043;-47
2023/09/30 04:49:35;;;;;;;0.00;0.00;;;;;;;13.39;100.00;102502.94;5103482;28;20122;-47
2023/09/30 04:52:01;;;;;;;0.00;0.00;;;;;;;13.38;100.00;102506.66;5100502;28;20501;-42
2023/09/30 04:54:26;;;;;;;0.00;0.00;;;;;;;13.38;100.00;102506.66;5104229;28;20051;-48
2023/09/30 04:56:51;;;;;;;0.00;0.00;;;;;;;13.45;100.00;102509.56;5101929;28;20031;-47
2023/09/30 04:59:16;;;;;;;0.00;0.00;;;;;;;13.48;100.00;102505.69;5103799;28;20114;-49
2023/09/30 05:01:42;;;;;;;0.00;0.00;;;;;;;13.48;100.00;102505.69;5103685;28;20092;-49
2023/09/30 05:04:07;;;;;;;0.00;0.00;;;;;;;13.50;100.00;102506.38;5103568;28;20079;-47
2023/09/30 05:06:33;;;;;;;0.00;0.00;;;;;;;13.51;100.00;102510.81;5103718;28;20118;-45
2023/09/30 05:08:59;;;;;;;0.00;0.00;;;;;;;13.49;100.00;102520.94;5097944;28;20089;-47
2023/09/30 05:11:25;;;;;;;0.00;0.00;;;;;;;13.57;100.00;102526.38;5099926;28;20526;-46
2023/09/30 05:13:50;;;;;;;0.00;0.00;;;;;;;13.54;100.00;102521.31;5102874;28;20171;-48
2023/09/30 05:16:17;;;;;;;0.00;0.00;;;;;;;13.50;100.00;102511.81;5103504;28;20124;-44
2023/09/30 05:18:43;;;;;;;0.00;0.00;;;;;;;13.44;100.00;102512.44;5105904;28;20031;-46
2023/09/30 05:21:08;;;;;;;0.00;0.00;;;;;;;13.43;100.00;102521.56;5098921;28;20063;-47
2023/09/30 05:23:34;;;;;;;0.00;0.00;;;;;;;13.38;100.00;102514.78;5097451;28;20035;-46
2023/09/30 05:26:00;;;;;;;0.00;0.00;;;;;;;13.34;100.00;102513.41;5103065;27;20608;-47
2023/09/30 05:28:25;;;;;;;0.00;0.00;;;;;;;13.34;100.00;102512.56;5103620;28;20122;-49
2023/09/30 05:30:51;;;;;;;0.00;0.00;;;;;;;13.30;100.00;102513.91;5105887;28;20542;-46
2023/09/30 05:33:17;;;;;;;0.00;0.00;;;;;;;13.29;100.00;102512.19;5105689;28;20044;-48
2023/09/30 05:35:42;;;;;;;0.00;0.00;;;;;;;13.31;100.00;102507.47;5107533;28;20484;-46
2023/09/30 05:38:08;;;;;;;0.00;0.00;;;;;;;13.31;100.00;102511.00;5102528;28;20050;-47
2023/09/30 05:40:33;;;;;;;0.00;0.00;;;;;;;13.30;100.00;102519.31;5105082;28;20032;-43
2023/09/30 05:42:59;;;;;;;0.00;0.00;;;;;;;13.30;100.00;102530.97;5098968;28;20032;-48
2023/09/30 05:45:28;;;;;;;0.00;0.00;;;;;;;13.34;100.00;102529.63;5101822;28;20063;-49
2023/09/30 05:47:56;;;;;;;0.00;0.00;;;;;;;13.35;100.00;102534.03;5105147;28;20039;-43
2023/09/30 05:50:24;;;;;;;0.00;0.00;;;;;;;13.38;100.00;102528.31;5106748;28;20059;-46
2023/09/30 05:52:53;;;;;;;0.00;0.00;;;;;;;13.47;100.00;102525.66;5107710;28;20027;-48
2023/09/30 05:55:22;;;;;;;0.00;0.00;;;;;;;13.51;100.00;102521.63;5106360;27;20089;-46
2023/09/30 05:57:52;;;;;;;0.00;0.00;;;;;;;13.55;100.00;102523.00;5106251;28;20044;-47
2023/09/30 06:00:30;;;;;;;0.00;0.00;;;;;;;13.54;100.00;102527.56;5105563;27;20130;-44
2023/09/30 06:02:56;;;;;;;0.00;0.00;;;;;;;13.58;100.00;102528.06;5105824;28;20046;-45
2023/09/30 06:05:22;;;;;;;0.00;0.00;;;;;;;13.67;100.00;102526.28;5107475;28;20027;-46
2023/09/30 06:07:48;;;;;;;0.00;0.00;;;;;;;13.77;100.00;102533.28;5105316;28;20473;-45
2023/09/30 06:10:18;;;;;;;0.00;0.00;;;;;;;13.78;100.00;102540.38;5103144;27;20035;-49
2023/09/30 06:12:46;;;;;;;0.00;0.00;;;;;;;13.80;100.00;102549.19;5107244;28;20112;-44
2023/09/30 06:15:13;;;;;;;0.00;0.00;;;;;;;13.79;100.00;102547.47;5109147;28;20042;-45
2023/09/30 06:17:38;;;;;;;0.00;0.00;;;;;;;13.92;100.00;102546.19;5106626;28;20063;-46
2023/09/30 06:20:09;;;;;;;0.00;0.00;;;;;;;13.93;100.00;102545.16;5108487;27;20152;-46
2023/09/30 06:22:34;;;;;;;0.00;0.00;;;;;;;13.87;100.00;102559.34;5108601;28;20631;-46
2023/09/30 06:25:00;;;;;;;0.00;0.00;;;;;;;13.86;100.00;102568.50;5108517;28;20106;-47
2023/09/30 06:27:25;;;;;;;0.00;0.00;;;;;;;13.83;100.00;102570.50;5105662;28;20254;-45
2023/09/30 06:29:51;;;;;;;0.00;0.00;;;;;;;13.87;100.00;102575.59;5111686;27;20106;-45
2023/09/30 06:32:16;;;;;;;0.00;0.00;;;;;;;13.81;100.00;102580.63;5109265;28;20031;-46
2023/09/30 06:34:42;;;;;;;0.00;0.00;;;;;;;13.76;100.00;102577.56;5108838;28;20028;-45
2023/09/30 06:37:08;;;;;;;0.00;0.00;;;;;;;13.84;100.00;102583.00;5108597;28;20292;-44
2023/09/30 06:39:33;;;;;;;0.00;0.00;;;;;;;13.95;100.00;102575.63;5109690;27;20035;-44
2023/09/30 06:41:59;;;;;;;0.00;0.00;;;;;;;13.98;100.00;102578.00;5108807;27;20023;-43
2023/09/30 06:44:25;;;;;;;0.00;0.00;;;;;;;13.95;100.00;102583.75;5107905;28;20020;-46
2023/09/30 06:46:50;;;;;;;0.00;0.00;;;;;;;14.05;100.00;102584.47;5107665;28;20089;-46
2023/09/30 06:49:16;;;;;;;0.00;0.00;;;;;;;14.12;100.00;102590.94;5108776;28;20102;-47
2023/09/30 06:51:41;;;;;;;0.00;0.00;;;;;;;14.25;100.00;102591.34;5108283;28;20023;-48
2023/09/30 06:54:06;;;;;;;0.00;0.00;;;;;;;14.43;100.00;102582.25;5106605;28;20120;-46
2023/09/30 06:56:32;;;;;;;0.00;0.00;;;;;;;14.71;100.00;102591.81;5106978;28;20031;-46
2023/09/30 06:58:57;;;;;;;0.00;0.00;;;;;;;14.95;100.00;102597.44;5106811;28;20073;-47
2023/09/30 07:01:23;;;;;;;0.00;0.00;;;;;;;15.01;100.00;102600.34;5107084;27;20150;-43
2023/09/30 07:03:49;;;;;;;0.00;0.00;;;;;;;14.98;100.00;102594.41;5107698;28;20028;-47
2023/09/30 07:06:22;;;;;;;0.00;0.00;;;;;;;15.20;100.00;102595.63;5106523;28;20020;-46
2023/09/30 07:08:47;;;;;;;0.00;0.00;;;;;;;15.18;100.00;102597.63;5106581;28;20019;-48
2023/09/30 07:11:12;;;;;;;0.00;0.00;;;;;;;15.14;100.00;102589.84;5106618;27;20032;-47
2023/09/30 07:13:38;;;;;;;0.00;0.00;;;;;;;15.10;100.00;102584.91;5107976;28;20085;-47
2023/09/30 07:16:03;;;;;;;0.00;0.00;;;;;;;15.04;100.00;102577.47;5106619;28;20066;-45
2023/09/30 07:18:29;;;;;;;0.00;0.00;;;;;;;15.07;100.00;102588.81;5107536;27;20408;-50
2023/09/30 07:20:54;;;;;;;0.00;0.00;;;;;;;15.13;100.00;102600.84;5106914;28;20118;-49
2023/09/30 07:23:21;;;;;;;0.00;0.00;;;;;;;15.61;100.00;102604.53;5105264;28;20023;-46
2023/09/30 07:25:47;;;;;;;0.00;0.00;;;;;;;16.05;100.00;102598.69;5106727;28;20439;-46
2023/09/30 07:28:13;;;;;;;0.00;0.00;;;;;;;16.47;100.00;102573.03;5107635;28;20035;-45
2023/09/30 07:30:39;;;;;;;0.00;0.00;;;;;;;16.99;100.00;102571.53;5108110;28;20027;-44
2023/09/30 07:33:05;;;;;;;0.00;0.00;;;;;;;17.72;100.00;102559.94;5106597;28;20027;-43
2023/09/30 07:35:30;;;;;;;0.00;0.00;;;;;;;18.47;100.00;102552.50;5107274;28;20087;-47
2023/09/30 07:37:56;;;;;;;0.00;0.00;;;;;;;18.46;100.00;102541.78;5106038;28;20023;-45
2023/09/30 07:40:21;;;;;;;0.00;0.00;;;;;;;18.81;100.00;102532.75;5106085;28;20595;-46
2023/09/30 07:42:46;;;;;;;0.00;0.00;;;;;;;19.20;100.00;102533.31;5106707;28;20027;-45
2023/09/30 07:45:16;;;;;;;0.00;0.00;;;;;;;19.05;100.00;102522.47;5106689;28;20043;-47
2023/09/30 07:47:43;;;;;;;0.00;0.00;;;;;;;19.02;100.00;102523.72;5106687;28;20064;-46
2023/09/30 07:50:09;;;;;;;0.00;0.00;;;;;;;18.93;100.00;102516.72;5106386;28;20502;-46
2023/09/30 07:52:35;;;;;;;0.00;0.00;;;;;;;18.49;100.00;102515.00;5106411;28;20296;-47
2023/09/30 07:55:01;;;;;;;0.00;0.00;;;;;;;18.18;100.00;102518.84;5107984;27;20247;-44
2023/09/30 07:57:26;;;;;;;0.00;0.00;;;;;;;18.06;100.00;102525.84;5107393;28;20042;-45
2023/09/30 07:59:52;;;;;;;0.00;0.00;;;;;;;17.73;100.00;102520.75;5106425;27;20130;-46
2023/09/30 08:02:17;;;;;;;0.00;0.00;;;;;;;17.59;100.00;102524.34;5106398;28;20028;-46
2023/09/30 08:04:43;;;;;;;0.00;0.00;;;;;;;17.41;100.00;102527.44;5107274;28;20031;-48
2023/09/30 08:07:09;;;;;;;0.00;0.00;;;;;;;17.25;100.00;102517.56;5105419;28;20490;-44
2023/09/30 08:09:34;;;;;;;0.00;0.00;;;;;;;17.25;100.00;102528.44;5104612;28;20036;-45
2023/09/30 08:12:00;;;;;;;0.00;0.00;;;;;;;17.13;100.00;102540.78;5096301;28;20081;-47
2023/09/30 08:14:25;;;;;;;0.00;0.00;;;;;;;16.86;100.00;102543.06;5103745;28;20136;-45
2023/09/30 08:16:51;;;;;;;0.00;0.00;;;;;;;16.89;100.00;102550.84;5103832;28;20031;-46
2023/09/30 08:19:16;;;;;;;0.00;0.00;;;;;;;17.14;100.00;102547.94;5103055;28;20063;-46
2023/09/30 08:21:42;;;;;;;0.00;0.00;;;;;;;17.85;100.00;102528.47;5105234;28;20116;-45
2023/09/30 08:24:08;;;;;;;0.00;0.00;;;;;;;18.32;100.00;102519.84;5103911;28;20509;-47
2023/09/30 08:26:35;;;;;;;0.00;0.00;;;;;;;18.73;100.00;102510.19;5101119;28;20452;-46
2023/09/30 08:29:00;;;;;;;0.00;0.00;;;;;;;18.52;100.00;102511.03;5104058;28;20412;-44
2023/09/30 08:31:26;;;;;;;0.00;0.00;;;;;;;18.33;100.00;102512.53;5104848;27;20385;-45
2023/09/30 08:33:51;;;;;;;0.00;0.00;;;;;;;18.19;100.00;102509.66;5103887;27;20243;-44
2023/09/30 08:36:16;;;;;;;0.00;0.00;;;;;;;18.15;100.00;102524.69;5102928;27;20033;-46
2023/09/30 08:38:42;;;;;;;0.00;0.00;;;;;;;18.38;100.00;102530.00;5102624;28;20063;-43
2023/09/30 08:41:08;;;;;;;0.00;0.00;;;;;;;18.22;100.00;102527.50;5104501;28;20028;-46
2023/09/30 08:43:40;;;;;;;0.00;0.00;;;;;;;18.24;100.00;102539.03;5104355;28;20565;-48
2023/09/30 08:46:06;;;;;;;0.00;0.00;;;;;;;18.39;100.00;102541.72;5100429;28;20028;-45
2023/09/30 08:48:35;;;;;;;0.00;0.00;;;;;;;18.76;100.00;102556.22;5104145;28;20383;-44
2023/09/30 08:51:01;;;;;;;0.00;0.00;;;;;;;18.62;100.00;102553.31;5100962;28;20039;-44
2023/09/30 08:53:29;;;;;;;0.00;0.00;;;;;;;18.69;100.00;102552.53;5104183;28;20024;-47
2023/09/30 08:55:55;;;;;;;0.00;0.00;;;;;;;19.04;100.00;102565.28;5101294;28;20118;-46
2023/09/30 08:58:26;;;;;;;0.00;0.00;;;;;;;19.60;100.00;102571.81;5102074;28;20031;-45
2023/09/30 09:00:51;;;;;;;0.00;0.00;;;;;;;20.39;100.00;102588.63;5104193;27;20062;-44
2023/09/30 09:03:19;;;;;;;0.00;0.00;;;;;;;20.76;100.00;102594.66;5100918;28;20126;-43
2023/09/30 09:05:45;;;;;;;0.00;0.00;;;;;;;20.71;100.00;102596.34;5098197;28;20024;-46
2023/09/30 09:08:10;;;;;;;0.00;0.00;;;;;;;20.38;100.00;102597.91;5104003;28;20124;-46
2023/09/30 09:10:35;;;;;;;0.00;0.00;;;;;;;20.22;100.00;102587.34;5101443;28;20949;-43
2023/09/30 09:13:01;;;;;;;0.00;0.00;;;;;;;20.16;100.00;102588.13;5101106;28;20047;-46
2023/09/30 09:15:30;;;;;;;0.00;0.00;;;;;;;19.84;100.00;102587.75;5102903;28;20493;-46
2023/09/30 09:17:56;;;;;;;0.00;0.00;;;;;;;19.67;100.00;102589.97;5101827;28;20038;-43
2023/09/30 09:20:24;;;;;;;0.00;0.00;;;;;;;19.61;100.00;102595.34;5099732;28;20118;-45
2023/09/30 09:22:53;;;;;;;0.00;0.00;;;;;;;19.69;100.00;102592.47;5105153;28;20023;-45
2023/09/30 09:25:19;;;;;;;0.00;0.00;;;;;;;19.69;100.00;102587.03;5105114;27;20030;-49
2023/09/30 09:27:44;;;;;;;0.00;0.00;;;;;;;19.50;100.00;102586.66;5107189;28;20035;-47
2023/09/30 09:30:14;;;;;;;0.00;0.00;;;;;;;19.53;100.00;102583.50;5107287;27;20032;-44
2023/09/30 09:32:54;;;;;;;0.00;0.00;;;;;;;19.50;100.00;102583.91;5107299;28;20036;-43
2023/09/30 09:35:21;;;;;;;0.00;0.00;;;;;;;19.46;100.00;102587.28;5107238;28;20473;-45
2023/09/30 09:38:01;;;;;;;0.00;0.00;;;;;;;19.53;100.00;102583.50;5107647;28;20114;-45
2023/09/30 09:40:28;;;;;;;0.00;0.00;;;;;;;19.56;100.00;102586.91;5107500;28;20559;-44
2023/09/30 09:42:58;;;;;;;0.00;0.00;;;;;;;19.45;100.00;102591.88;5107675;28;20101;-45
2023/09/30 09:45:25;;;;;;;0.00;0.00;;;;;;;19.51;100.00;102588.34;5107533;28;20024;-44
2023/09/30 09:47:54;;;;;;;0.00;0.00;;;;;;;19.65;100.00;102585.72;5107223;28;20323;-43
2023/09/30 09:50:22;;;;;;;0.00;0.00;;;;;;;19.73;100.00;102593.78;5107172;28;20031;-46
2023/09/30 09:52:50;;;;;;;0.00;0.00;;;;;;;19.64;100.00;102590.34;5107471;28;20427;-47
2023/09/30 09:55:17;;;;;;;0.00;0.00;;;;;;;19.51;100.00;102585.63;5103434;27;20489;-45
2023/09/30 09:57:43;;;;;;;0.00;0.00;;;;;;;19.50;100.00;102578.47;5106286;28;20319;-46
2023/09/30 10:00:14;;;;;;;0.00;0.00;;;;;;;19.51;100.00;102568.41;5103850;28;20063;-44
2023/09/30 10:02:40;;;;;;;0.00;0.00;;;;;;;19.33;100.00;102555.25;5107854;28;20119;-46
2023/09/30 10:05:06;;;;;;;0.00;0.00;;;;;;;19.25;100.00;102547.22;5103239;28;20115;-46
2023/09/30 10:07:36;;;;;;;0.00;0.00;;;;;;;19.18;100.00;102557.22;5106293;28;20039;-45
2023/09/30 10:10:03;;;;;;;0.00;0.00;;;;;;;19.18;100.00;102555.31;5108795;28;20067;-47
2023/09/30 10:12:35;;;;;;;0.00;0.00;;;;;;;18.99;100.00;102553.28;5104759;28;20422;-44
2023/09/30 10:15:01;;;;;;;0.00;0.00;;;;;;;18.76;100.00;102548.03;5108445;28;20123;-43
2023/09/30 10:17:58;;;;;;;0.00;0.00;;;;;;;18.85;100.00;102557.75;5105135;28;20103;-45
2023/09/30 10:20:34;;;;;;;0.00;0.00;;;;;;;18.71;100.00;102556.75;5105850;28;20031;-46
2023/09/30 10:23:21;;;;;;;0.00;0.00;;;;;;;18.80;100.00;102560.22;5101571;28;20099;-43
2023/09/30 10:25:47;;;;;;;0.00;0.00;;;;;;;18.73;100.00;102560.13;5106438;27;20035;-46
2023/09/30 10:28:35;;;;;;;0.00;0.00;;;;;;;18.80;100.00;102552.91;5106404;28;20062;-46
2023/09/30 10:31:13;;;;;;;;;;;;;;;18.81;100.00;102551.00;5106331;27;20477;-46
2023/09/30 10:34:00;;;;;;;0.00;0.00;;;;;;;18.83;100.00;102548.94;5102233;28;20378;-45
2023/09/30 10:36:29;;;;;;;0.00;0.00;;;;;;;18.75;100.00;102547.19;5105222;28;20039;-46
2023/09/30 10:38:55;;;;;;;0.00;0.00;;;;;;;18.63;100.00;102548.69;5105567;28;20106;-43
2023/09/30 10:41:45;;;;;;;0.00;0.00;;;;;;;18.76;100.00;102558.94;5104826;28;20108;-42
2023/09/30 10:44:22;;;;;;;0.00;0.00;;;;;;;18.61;100.00;102556.22;5107458;28;20501;-48
2023/09/30 10:46:51;;;;;;;0.00;0.00;;;;;;;18.71;100.00;102558.63;5102736;28;20092;-44
2023/09/30 10:49:31;;;;;;;0.00;0.00;;;;;;;18.68;100.00;102559.03;5110325;28;20126;-44
2023/09/30 10:51:59;;;;;;;0.00;0.00;;;;;;;18.67;100.00;102554.59;5108227;28;20031;-46
2023/09/30 10:54:29;;;;;;;0.00;0.00;;;;;;;18.70;100.00;102556.97;5105356;28;20035;-45
2023/09/30 10:56:55;;;;;;;0.00;0.00;;;;;;;18.74;100.00;102555.53;5107014;28;20404;-45
2023/09/30 10:59:28;;;;;;;0.00;0.00;;;;;;;18.72;100.00;102555.72;5111064;28;20032;-44
2023/09/30 11:01:53;;;;;;;0.00;0.00;;;;;;;18.87;100.00;102544.75;5109760;27;20114;-46
2023/09/30 11:04:19;;;;;;;0.00;0.00;;;;;;;19.03;100.00;102527.28;5109572;28;20098;-49
2023/09/30 11:06:46;;;;;;;0.00;0.00;;;;;;;18.98;100.00;102521.56;5106856;28;20496;-46
2023/09/30 11:09:20;;;;;;;0.00;0.00;;;;;;;18.95;100.00;102531.00;5105380;28;20024;-46
2023/09/30 11:11:49;;;;;;;0.00;0.00;;;;;;;18.88;100.00;102521.91;5105559;28;20042;-46
2023/09/30 11:14:24;;;;;;;0.00;0.00;;;;;;;18.84;100.00;102526.06;5106000;28;20114;-46
2023/09/30 11:16:51;;;;;;;0.00;0.00;;;;;;;18.86;100.00;102527.56;5102516;28;20028;-48